Time;durP1;ratioP1;P1;durP2;ratioP2;P2;SDS_P1;SDS_P2;PMS_P1;PMS_P2;Temp;Humidity;BMP_temperature;BMP_pressure;BME280_temperature;BME280_humidity;BME280_pressure;Samples;Min_cycle;Max_cycle;Signal;HPM_P1;HPM_P2
2023/01/21 00:00:39;;;;;;;27.23;21.90;;;1.10;99.90;;;;;;4980578;28;20216;-48
2023/01/21 00:03:05;;;;;;;24.25;21.65;;;1.00;99.90;;;;;;4971811;28;20192;-48
2023/01/21 00:05:31;;;;;;;22.87;20.43;;;1.00;99.90;;;;;;4976721;28;20198;-48
2023/01/21 00:07:56;;;;;;;26.17;22.17;;;1.00;99.90;;;;;;4968122;28;20186;-46
2023/01/21 00:10:22;;;;;;;23.80;21.30;;;1.10;99.90;;;;;;4979288;28;20190;-46
2023/01/21 00:12:47;;;;;;;23.20;20.70;;;1.00;99.90;;;;;;4970250;28;20214;-48
2023/01/21 00:15:13;;;;;;;26.33;20.83;;;1.00;99.90;;;;;;4970140;28;20190;-47
2023/01/21 00:17:39;;;;;;;23.47;20.97;;;0.90;99.90;;;;;;4979469;28;20680;-46
2023/01/21 00:20:05;;;;;;;24.00;19.13;;;0.90;99.90;;;;;;4968785;28;20195;-47
2023/01/21 00:22:31;;;;;;;22.42;20.02;;;0.90;99.90;;;;;;4976273;28;20252;-44
2023/01/21 00:24:57;;;;;;;20.75;18.60;;;0.90;99.90;;;;;;4967049;28;20307;-50
2023/01/21 00:27:23;;;;;;;25.47;20.67;;;0.90;99.90;;;;;;4970395;28;20195;-48
2023/01/21 00:29:49;;;;;;;22.80;20.40;;;0.90;99.90;;;;;;4973974;28;20289;-47
2023/01/21 00:32:14;;;;;;;23.43;20.90;;;0.90;99.90;;;;;;4973133;28;20578;-45
2023/01/21 00:34:40;;;;;;;23.60;21.07;;;0.80;99.90;;;;;;4968730;28;20182;-47
2023/01/21 00:37:06;;;;;;;25.17;20.90;;;0.80;99.90;;;;;;4973394;28;20307;-45
2023/01/21 00:39:32;;;;;;;23.97;21.47;;;0.80;99.90;;;;;;4975149;28;20293;-46
2023/01/21 00:41:58;;;;;;;25.17;21.47;;;0.80;99.90;;;;;;4974426;28;20478;-46
2023/01/21 00:44:24;;;;;;;27.63;21.23;;;0.70;99.90;;;;;;4969062;28;20417;-47
2023/01/21 00:46:49;;;;;;;28.77;23.13;;;0.70;99.90;;;;;;4977942;28;20441;-46
2023/01/21 00:49:15;;;;;;;24.13;21.63;;;0.70;99.90;;;;;;4982410;28;20194;-49
2023/01/21 00:51:40;;;;;;;26.80;21.97;;;0.70;99.90;;;;;;4971290;28;20236;-45
2023/01/21 00:54:06;;;;;;;32.30;23.73;;;0.70;99.90;;;;;;4972241;28;20197;-45
2023/01/21 00:56:32;;;;;;;28.73;22.53;;;0.70;99.90;;;;;;4977213;28;21024;-45
2023/01/21 00:58:57;;;;;;;29.50;23.43;;;0.70;99.90;;;;;;4981067;28;20176;-47
2023/01/21 01:01:25;;;;;;;31.70;22.60;;;0.60;99.90;;;;;;4971978;28;20201;-46
2023/01/21 01:03:51;;;;;;;29.55;23.30;;;0.60;99.90;;;;;;4981151;28;20296;-47
2023/01/21 01:06:21;;;;;;;29.27;23.80;;;0.60;99.90;;;;;;4976157;28;20189;-45
2023/01/21 01:08:51;;;;;;;28.17;22.27;;;0.50;99.90;;;;;;4969626;28;20716;-45
2023/01/21 01:11:20;;;;;;;27.00;21.17;;;0.50;99.90;;;;;;4971155;28;20241;-46
2023/01/21 01:13:46;;;;;;;28.48;20.85;;;0.60;99.90;;;;;;4976722;28;21704;-47
2023/01/21 01:16:13;;;;;;;27.40;21.63;;;0.60;99.90;;;;;;4967289;28;20276;-45
2023/01/21 01:18:39;;;;;;;23.65;21.13;;;0.50;99.90;;;;;;4964700;28;20989;-47
2023/01/21 01:21:09;;;;;;;30.47;22.80;;;0.50;99.90;;;;;;4972788;28;20251;-44
2023/01/21 01:23:35;;;;;;;28.25;22.58;;;0.50;99.90;;;;;;4971939;28;20523;-46
2023/01/21 01:26:03;;;;;;;27.40;21.73;;;0.40;99.90;;;;;;4970303;28;20212;-48
2023/01/21 01:28:30;;;;;;;27.80;22.63;;;0.40;99.90;;;;;;4963902;28;20197;-48
2023/01/21 01:30:56;;;;;;;34.80;24.63;;;0.40;99.90;;;;;;4969736;28;20214;-45
2023/01/21 01:33:23;;;;;;;33.00;23.90;;;0.40;99.90;;;;;;4963763;28;20192;-44
2023/01/21 01:35:48;;;;;;;33.88;23.25;;;0.40;99.90;;;;;;4962889;28;20196;-46
2023/01/21 01:38:16;;;;;;;32.67;24.30;;;0.40;99.90;;;;;;4963813;28;20186;-46
2023/01/21 01:40:42;;;;;;;33.45;24.75;;;0.50;99.90;;;;;;4966069;28;20225;-44
2023/01/21 01:43:18;;;;;;;31.90;25.52;;;0.50;99.90;;;;;;4963633;28;20189;-48
2023/01/21 01:45:44;;;;;;;36.85;25.65;;;0.60;99.90;;;;;;4966679;28;20185;-48
2023/01/21 01:48:15;;;;;;;33.95;25.20;;;0.50;99.90;;;;;;4963178;28;20196;-47
2023/01/21 01:50:41;;;;;;;35.72;24.77;;;0.50;99.90;;;;;;4963037;28;20209;-49
2023/01/21 01:53:10;;;;;;;33.05;24.77;;;0.50;99.90;;;;;;4963033;28;20289;-49
2023/01/21 01:55:37;;;;;;;35.80;25.65;;;0.50;99.90;;;;;;4963362;28;20616;-44
2023/01/21 01:58:05;;;;;;;29.27;24.30;;;0.50;99.90;;;;;;4946502;28;20295;-46
2023/01/21 02:00:31;;;;;;;29.88;23.55;;;0.50;99.90;;;;;;4966043;28;20186;-48
2023/01/21 02:05:42;;;;;;;25.92;22.95;;;0.50;99.90;;;;;;4973686;28;20196;-48
2023/01/21 02:08:09;;;;;;;32.75;23.02;;;0.50;99.90;;;;;;4964067;28;20184;-47
2023/01/21 02:10:35;;;;;;;30.10;22.80;;;0.50;99.90;;;;;;4950925;28;20193;-44
2023/01/21 02:13:02;;;;;;;26.42;22.27;;;0.40;99.90;;;;;;4965563;28;20653;-47
2023/01/21 02:16:09;;;;;;;25.85;21.48;;;0.40;99.90;;;;;;4973174;28;20265;-45
2023/01/21 02:18:50;;;;;;;27.13;21.40;;;0.30;99.90;;;;;;4974790;28;20195;-49
2023/01/21 02:21:27;;;;;;;24.95;21.65;;;0.40;99.90;;;;;;4974285;28;20242;-47
2023/01/21 02:24:05;;;;;;;23.02;20.50;;;0.40;99.90;;;;;;4968718;28;20530;-44
2023/01/21 02:27:03;;;;;;;28.23;23.75;;;0.40;99.90;;;;;;4966104;28;20193;-46
2023/01/21 02:29:38;;;;;;;25.92;21.15;;;0.40;99.90;;;;;;4965264;28;20194;-46
2023/01/21 02:32:19;;;;;;;25.42;21.58;;;0.40;99.90;;;;;;4973231;28;20210;-45
2023/01/21 02:35:04;;;;;;;26.77;22.58;;;0.40;99.90;;;;;;4970735;28;20690;-50
2023/01/21 02:37:50;;;;;;;28.75;23.10;;;0.40;99.90;;;;;;4968960;28;20188;-45
2023/01/21 02:40:34;;;;;;;29.67;24.50;;;0.40;99.90;;;;;;4961650;28;20543;-48
2023/01/21 02:43:14;;;;;;;28.33;23.80;;;0.40;99.90;;;;;;4968038;28;20239;-45
2023/01/21 02:45:42;;;;;;;29.90;23.48;;;0.40;99.90;;;;;;4964259;28;20194;-46
2023/01/21 02:48:28;;;;;;;29.08;23.27;;;0.40;99.90;;;;;;4962200;28;20192;-44
2023/01/21 02:50:54;;;;;;;27.92;23.70;;;0.40;99.90;;;;;;4961657;28;20703;-49
2023/01/21 02:53:35;;;;;;;27.87;22.67;;;0.50;99.90;;;;;;4962540;28;20201;-45
2023/01/21 02:56:03;;;;;;;31.02;22.63;;;0.40;99.90;;;;;;4962000;28;20517;-44
2023/01/21 02:58:34;;;;;;;24.20;20.30;;;0.50;99.90;;;;;;4962243;28;20251;-47
2023/01/21 03:01:24;;;;;;;22.05;19.75;;;0.40;99.90;;;;;;4970601;28;20197;-44
2023/01/21 03:04:05;;;;;;;23.33;19.30;;;0.40;99.90;;;;;;4962710;28;20561;-46
2023/01/21 03:06:36;;;;;;;20.92;18.75;;;0.40;99.90;;;;;;4962262;28;20188;-44
2023/01/21 03:09:23;;;;;;;19.65;17.63;;;0.50;99.90;;;;;;4962277;28;20207;-44
2023/01/21 03:12:28;;;;;;;21.70;19.40;;;0.40;99.90;;;;;;4967808;28;20205;-44
2023/01/21 03:18:21;;;;;;;21.05;18.23;;;0.30;99.90;;;;;;4961544;28;20230;-44
2023/01/21 03:21:00;;;;;;;21.00;18.20;;;0.30;99.90;;;;;;4959850;28;20516;-44
2023/01/21 03:23:31;;;;;;;20.23;18.00;;;0.20;99.90;;;;;;4960724;28;20188;-44
2023/01/21 03:25:59;;;;;;;19.63;17.63;;;0.30;99.90;;;;;;4970714;28;21240;-44
2023/01/21 03:28:29;;;;;;;21.00;18.70;;;0.30;99.90;;;;;;4964316;28;20181;-46
2023/01/21 03:31:08;;;;;;;21.15;18.98;;;0.30;99.90;;;;;;4963530;28;20192;-45
2023/01/21 03:33:39;;;;;;;20.05;18.08;;;0.30;99.90;;;;;;4964551;28;20287;-43
2023/01/21 03:36:12;;;;;;;21.27;19.02;;;0.20;99.90;;;;;;4962158;28;20177;-47
2023/01/21 03:38:43;;;;;;;24.45;18.23;;;0.20;99.90;;;;;;4973569;28;20304;-45
2023/01/21 03:41:14;;;;;;;20.10;18.10;;;0.20;99.90;;;;;;4966428;28;20256;-45
2023/01/21 03:43:40;;;;;;;20.33;18.13;;;0.20;99.90;;;;;;4967248;28;20245;-44
2023/01/21 03:46:20;;;;;;;21.50;19.30;;;0.20;99.90;;;;;;4972433;28;20586;-45
2023/01/21 03:49:08;;;;;;;21.17;18.50;;;0.20;99.90;;;;;;4966752;28;20272;-50
2023/01/21 03:51:38;;;;;;;20.48;18.55;;;0.30;99.90;;;;;;4967794;28;20216;-47
2023/01/21 03:54:04;;;;;;;21.90;19.60;;;0.30;99.90;;;;;;4967643;28;20743;-47
2023/01/21 03:56:30;;;;;;;21.60;19.40;;;0.30;99.90;;;;;;4965952;28;20196;-45
2023/01/21 03:58:56;;;;;;;21.47;18.67;;;0.30;99.90;;;;;;4966093;28;20498;-45
2023/01/21 04:01:21;;;;;;;21.17;19.10;;;0.20;99.90;;;;;;4973475;28;20188;-47
2023/01/21 04:03:47;;;;;;;20.53;18.53;;;0.20;99.90;;;;;;4982150;28;20238;-50
2023/01/21 04:06:18;;;;;;;21.23;18.92;;;0.20;99.90;;;;;;4971036;28;20378;-48
2023/01/21 04:08:44;;;;;;;21.92;19.58;;;0.20;99.90;;;;;;4964581;28;20189;-47
2023/01/21 04:11:10;;;;;;;22.42;20.02;;;0.20;99.90;;;;;;4966535;28;20301;-45
2023/01/21 04:13:36;;;;;;;22.25;19.95;;;0.20;99.90;;;;;;4965092;28;20181;-49
2023/01/21 04:16:01;;;;;;;22.40;20.10;;;0.20;99.90;;;;;;4964973;28;20189;-46
2023/01/21 04:18:27;;;;;;;25.20;21.37;;;0.20;99.90;;;;;;4965672;28;20515;-46
2023/01/21 04:20:53;;;;;;;24.57;20.23;;;0.20;99.90;;;;;;4964604;28;20253;-44
2023/01/21 04:23:19;;;;;;;23.30;21.00;;;0.20;99.90;;;;;;4966722;28;20432;-47
2023/01/21 04:25:47;;;;;;;24.53;21.43;;;0.20;99.90;;;;;;4964975;28;20197;-50
2023/01/21 04:28:13;;;;;;;22.80;20.40;;;0.20;99.90;;;;;;4966043;28;20193;-45
2023/01/21 04:30:39;;;;;;;22.50;20.20;;;0.10;99.90;;;;;;4964672;28;20200;-45
2023/01/21 04:33:04;;;;;;;23.13;20.50;;;0.10;99.90;;;;;;4970746;28;20218;-50
2023/01/21 04:35:30;;;;;;;21.10;19.10;;;0.10;99.90;;;;;;4964663;28;20186;-47
2023/01/21 04:37:56;;;;;;;22.50;20.20;;;0.00;99.90;;;;;;4964286;28;20289;-49
2023/01/21 04:40:21;;;;;;;24.80;21.00;;;0.00;99.90;;;;;;4964157;28;20264;-45
2023/01/21 04:42:47;;;;;;;22.87;20.47;;;0.00;99.90;;;;;;4977625;28;20197;-46
2023/01/21 04:45:12;;;;;;;23.53;20.63;;;0.00;99.90;;;;;;4965655;28;20668;-49
2023/01/21 04:47:42;;;;;;;23.03;20.63;;;0.10;99.90;;;;;;4964169;28;20188;-47
2023/01/21 04:50:09;;;;;;;23.58;21.10;;;0.20;99.90;;;;;;4965975;28;20189;-42
2023/01/21 04:52:35;;;;;;;23.42;20.77;;;0.10;99.90;;;;;;4969010;28;20311;-47
2023/01/21 04:55:03;;;;;;;23.13;20.70;;;0.20;99.90;;;;;;4964299;28;21194;-49
2023/01/21 04:57:29;;;;;;;25.17;21.50;;;0.20;99.90;;;;;;4962487;28;20184;-45
2023/01/21 04:59:54;;;;;;;23.53;20.00;;;0.10;99.90;;;;;;4967239;28;20181;-44
2023/01/21 05:02:20;;;;;;;23.93;21.50;;;0.10;99.90;;;;;;4967102;28;20197;-46
2023/01/21 05:04:46;;;;;;;23.83;21.40;;;0.10;99.90;;;;;;4963823;28;20227;-45
2023/01/21 05:07:12;;;;;;;25.80;21.03;;;0.00;99.90;;;;;;4967429;28;20193;-43
2023/01/21 05:09:37;;;;;;;24.17;21.33;;;0.00;99.90;;;;;;4970768;28;20180;-46
2023/01/21 05:12:03;;;;;;;23.77;21.27;;;-0.10;99.90;;;;;;4977864;28;21437;-45
2023/01/21 05:14:29;;;;;;;23.17;20.73;;;0.00;99.90;;;;;;4963625;28;20197;-43
2023/01/21 05:16:54;;;;;;;23.97;21.00;;;0.00;99.90;;;;;;4967681;28;20446;-44
2023/01/21 05:19:20;;;;;;;24.73;21.23;;;0.00;99.90;;;;;;4963786;28;20200;-43
2023/01/21 05:21:46;;;;;;;23.27;20.83;;;0.00;99.90;;;;;;4965175;28;20280;-47
2023/01/21 05:24:11;;;;;;;23.13;20.70;;;0.00;99.90;;;;;;4969400;28;20199;-49
2023/01/21 05:26:37;;;;;;;22.97;20.33;;;0.00;99.90;;;;;;4977259;28;20207;-44
2023/01/21 05:29:03;;;;;;;22.70;19.53;;;0.00;99.90;;;;;;4975826;28;20187;-51
2023/01/21 05:31:28;;;;;;;22.40;20.00;;;0.00;99.90;;;;;;4962578;28;20235;-47
2023/01/21 05:33:56;;;;;;;22.30;20.00;;;0.00;99.90;;;;;;4977356;28;20534;-47
2023/01/21 05:36:21;;;;;;;22.75;20.35;;;0.00;99.90;;;;;;4970107;28;20173;-44
2023/01/21 05:38:47;;;;;;;23.90;21.50;;;0.00;99.90;;;;;;4969037;28;20193;-48
2023/01/21 05:41:13;;;;;;;22.90;20.57;;;0.10;99.90;;;;;;4969625;28;20235;-43
2023/01/21 05:43:38;;;;;;;22.37;19.97;;;0.00;99.90;;;;;;4966491;28;20214;-45
2023/01/21 05:46:04;;;;;;;22.13;19.90;;;0.00;99.90;;;;;;4959777;28;20216;-46
2023/01/21 05:48:30;;;;;;;23.43;20.83;;;0.00;99.90;;;;;;4973400;28;20198;-44
2023/01/21 05:50:56;;;;;;;25.98;21.65;;;0.00;99.90;;;;;;4969700;28;20439;-46
2023/01/21 05:53:23;;;;;;;25.85;22.02;;;-0.10;99.90;;;;;;4947725;28;20292;-45
2023/01/21 05:55:53;;;;;;;28.80;23.70;;;0.00;99.90;;;;;;4963433;28;20251;-44
2023/01/21 05:58:19;;;;;;;29.52;22.88;;;-0.10;99.90;;;;;;4965449;28;20191;-45
2023/01/21 06:00:47;;;;;;;25.58;22.35;;;-0.10;99.90;;;;;;4965009;28;20190;-49
2023/01/21 06:03:13;;;;;;;23.75;20.95;;;-0.10;99.90;;;;;;4967918;28;20243;-47
2023/01/21 06:05:39;;;;;;;26.70;22.08;;;0.00;99.90;;;;;;4971172;28;20342;-45
2023/01/21 06:08:04;;;;;;;27.83;23.80;;;-0.10;99.90;;;;;;4962913;28;20267;-49
2023/01/21 06:10:30;;;;;;;28.43;22.47;;;-0.10;99.90;;;;;;4967721;28;20194;-44
2023/01/21 06:12:55;;;;;;;32.80;22.77;;;-0.10;99.90;;;;;;4969353;28;20216;-47
2023/01/21 06:15:21;;;;;;;32.70;23.73;;;-0.20;99.90;;;;;;4963261;28;20707;-45
2023/01/21 06:17:47;;;;;;;33.67;24.33;;;-0.20;99.90;;;;;;4965732;28;20248;-44
2023/01/21 06:20:12;;;;;;;32.87;23.57;;;-0.20;99.90;;;;;;4969137;28;20198;-44
2023/01/21 06:22:38;;;;;;;34.73;24.33;;;-0.10;99.90;;;;;;4974867;28;20267;-43
2023/01/21 06:25:04;;;;;;;33.73;23.80;;;-0.10;99.90;;;;;;4964048;28;20181;-49
2023/01/21 06:27:29;;;;;;;30.53;24.50;;;-0.20;99.90;;;;;;4966805;28;20255;-45
2023/01/21 06:29:55;;;;;;;32.90;23.97;;;-0.20;99.90;;;;;;4966713;28;20498;-44
2023/01/21 06:32:20;;;;;;;36.43;24.13;;;-0.10;99.90;;;;;;4971656;28;20260;-44
2023/01/21 06:34:46;;;;;;;37.33;24.77;;;-0.20;99.90;;;;;;4968152;28;20192;-43
2023/01/21 06:37:11;;;;;;;33.53;24.67;;;-0.20;99.90;;;;;;4976033;28;20343;-49
2023/01/21 06:39:37;;;;;;;33.50;25.27;;;-0.20;99.90;;;;;;4979066;28;20542;-45
2023/01/21 06:42:03;;;;;;;40.00;26.73;;;-0.20;99.90;;;;;;4967081;28;20287;-43
2023/01/21 06:44:29;;;;;;;37.87;24.70;;;-0.20;99.90;;;;;;4966951;28;20531;-43
2023/01/21 06:46:54;;;;;;;37.10;25.20;;;-0.20;99.90;;;;;;4962972;28;20192;-45
2023/01/21 06:49:20;;;;;;;32.83;24.17;;;-0.20;99.90;;;;;;4977899;28;20196;-46
2023/01/21 06:51:45;;;;;;;28.90;22.47;;;-0.20;99.90;;;;;;4967420;28;20217;-46
2023/01/21 06:54:11;;;;;;;29.60;22.63;;;-0.20;99.90;;;;;;4967256;28;20194;-45
2023/01/21 06:56:37;;;;;;;32.57;24.27;;;-0.30;99.90;;;;;;4970003;28;20220;-45
2023/01/21 06:59:03;;;;;;;28.30;22.43;;;-0.30;99.90;;;;;;4968654;28;20764;-44
2023/01/21 07:01:29;;;;;;;26.67;22.90;;;-0.30;99.90;;;;;;4962699;28;20207;-45
2023/01/21 07:03:55;;;;;;;28.00;21.40;;;-0.30;99.90;;;;;;4962068;28;20827;-45
2023/01/21 07:06:21;;;;;;;30.00;23.07;;;-0.30;99.90;;;;;;4962445;28;20283;-50
2023/01/21 07:08:47;;;;;;;30.35;21.70;;;-0.20;99.90;;;;;;4962939;28;20279;-44
2023/01/21 07:11:12;;;;;;;27.83;20.75;;;-0.20;99.90;;;;;;4966469;28;20217;-45
2023/01/21 07:13:38;;;;;;;26.63;21.60;;;-0.20;99.90;;;;;;4965669;28;20188;-46
2023/01/21 07:16:04;;;;;;;28.70;22.77;;;-0.20;99.90;;;;;;4953354;28;20205;-44
2023/01/21 07:18:30;;;;;;;23.52;20.05;;;-0.20;99.90;;;;;;4958958;28;20523;-51
2023/01/21 07:20:56;;;;;;;24.93;22.03;;;-0.10;99.90;;;;;;4973730;28;20188;-44
2023/01/21 07:23:22;;;;;;;27.75;21.45;;;-0.20;99.90;;;;;;4973758;28;20185;-47
2023/01/21 07:25:48;;;;;;;28.38;21.70;;;-0.20;99.90;;;;;;4983652;28;20188;-48
2023/01/21 07:28:14;;;;;;;26.23;21.03;;;-0.20;99.90;;;;;;4977149;28;20214;-45
2023/01/21 07:30:39;;;;;;;26.13;22.90;;;-0.20;99.90;;;;;;4970610;28;21734;-45
2023/01/21 07:33:06;;;;;;;24.67;22.07;;;-0.20;99.90;;;;;;4970055;28;20473;-45
2023/01/21 07:35:32;;;;;;;25.05;21.35;;;-0.20;99.90;;;;;;4981719;28;20259;-45
2023/01/21 07:38:00;;;;;;;24.10;20.77;;;-0.10;99.90;;;;;;4965892;28;20198;-45
2023/01/21 07:40:26;;;;;;;26.75;20.38;;;-0.10;99.90;;;;;;4965104;28;20254;-46
2023/01/21 07:42:53;;;;;;;23.47;20.70;;;-0.10;99.90;;;;;;4969911;28;20200;-48
2023/01/21 07:45:19;;;;;;;27.23;21.55;;;0.00;99.90;;;;;;4977688;28;20457;-45
2023/01/21 07:47:45;;;;;;;30.50;22.48;;;-0.10;99.90;;;;;;4977062;28;20195;-45
2023/01/21 07:50:12;;;;;;;25.13;20.93;;;-0.10;99.90;;;;;;4975274;28;20602;-46
2023/01/21 07:52:38;;;;;;;27.58;22.35;;;-0.10;99.90;;;;;;4953261;28;20220;-45
2023/01/21 07:55:04;;;;;;;25.00;21.03;;;-0.10;99.90;;;;;;4967642;28;20264;-45
2023/01/21 07:57:30;;;;;;;24.73;21.52;;;-0.10;99.90;;;;;;4965148;28;20268;-48
2023/01/21 07:59:55;;;;;;;24.70;22.00;;;-0.10;99.90;;;;;;4971550;28;20197;-46
2023/01/21 08:02:21;;;;;;;26.00;22.23;;;0.00;99.90;;;;;;4970079;28;20576;-43
2023/01/21 08:04:47;;;;;;;26.57;21.77;;;0.00;99.90;;;;;;4970109;28;20201;-45
2023/01/21 08:07:13;;;;;;;26.60;21.97;;;-0.10;99.90;;;;;;4971376;28;20226;-45
2023/01/21 08:09:38;;;;;;;42.47;31.53;;;-0.10;99.90;;;;;;4973758;28;20189;-44
2023/01/21 08:12:05;;;;;;;54.80;41.67;;;0.00;99.90;;;;;;4975159;28;20563;-46
2023/01/21 08:14:31;;;;;;;44.80;34.35;;;0.00;99.90;;;;;;4981090;28;20191;-45
2023/01/21 08:16:57;;;;;;;52.70;40.08;;;0.00;99.90;;;;;;4976496;28;20177;-45
2023/01/21 08:19:23;;;;;;;30.52;27.10;;;0.10;99.90;;;;;;4970036;28;20269;-48
2023/01/21 08:21:50;;;;;;;32.80;26.77;;;0.10;99.90;;;;;;4954375;28;20303;-47
2023/01/21 08:24:15;;;;;;;32.85;29.25;;;0.10;99.90;;;;;;4948219;28;21017;-46
2023/01/21 08:26:41;;;;;;;31.80;28.37;;;0.10;99.90;;;;;;4966740;28;20189;-46
2023/01/21 08:29:07;;;;;;;29.90;25.60;;;0.10;99.90;;;;;;4965218;28;20188;-45
2023/01/21 08:31:32;;;;;;;27.57;24.20;;;0.10;99.90;;;;;;4971383;28;20649;-45
2023/01/21 08:33:58;;;;;;;26.63;23.87;;;0.20;99.90;;;;;;4966710;28;20443;-46
2023/01/21 08:36:24;;;;;;;38.28;33.10;;;0.20;99.90;;;;;;4966731;28;20416;-46
2023/01/21 08:38:54;;;;;;;30.53;25.37;;;0.20;99.90;;;;;;4965047;28;20196;-47
2023/01/21 08:41:20;;;;;;;38.22;34.17;;;0.20;99.90;;;;;;4977998;28;20475;-44
2023/01/21 08:43:46;;;;;;;27.40;24.33;;;0.30;99.90;;;;;;4969639;28;20647;-46
2023/01/21 08:46:12;;;;;;;27.73;24.83;;;0.30;99.90;;;;;;4970633;28;20444;-45
2023/01/21 08:48:38;;;;;;;28.00;23.58;;;0.20;99.90;;;;;;4973370;28;20248;-49
2023/01/21 08:51:04;;;;;;;27.20;24.33;;;0.30;99.90;;;;;;4969781;28;20185;-43
2023/01/21 08:53:31;;;;;;;28.08;24.15;;;0.30;99.90;;;;;;4981635;28;20419;-45
2023/01/21 08:56:04;;;;;;;25.75;22.70;;;0.30;99.90;;;;;;4971008;28;20296;-47
2023/01/21 08:58:31;;;;;;;31.92;27.33;;;0.30;99.90;;;;;;4973105;28;20256;-46
2023/01/21 09:00:57;;;;;;;25.17;22.52;;;0.30;99.90;;;;;;4971598;28;20263;-47
2023/01/21 09:03:23;;;;;;;28.70;22.73;;;0.40;99.90;;;;;;4970609;28;20581;-47
2023/01/21 09:05:50;;;;;;;28.77;22.95;;;0.40;99.90;;;;;;4964290;28;20420;-45
2023/01/21 09:08:18;;;;;;;28.95;24.05;;;0.40;99.90;;;;;;4971494;28;20173;-51
2023/01/21 09:11:00;;;;;;;28.27;25.27;;;0.40;99.90;;;;;;4969614;28;20192;-44
2023/01/21 09:13:28;;;;;;;28.70;23.90;;;0.40;99.90;;;;;;4975025;28;20195;-45
2023/01/21 09:15:54;;;;;;;32.30;28.80;;;0.40;99.90;;;;;;4968248;28;20735;-46
2023/01/21 09:18:19;;;;;;;31.33;27.90;;;0.50;99.90;;;;;;4965749;28;20193;-44
2023/01/21 09:20:47;;;;;;;29.90;25.87;;;0.50;99.90;;;;;;4967544;28;20262;-43
2023/01/21 09:23:24;;;;;;;26.73;23.90;;;0.50;99.90;;;;;;4948684;28;20193;-45
2023/01/21 09:26:00;;;;;;;26.60;23.80;;;0.50;99.90;;;;;;4981885;28;20189;-47
2023/01/21 09:28:26;;;;;;;28.45;23.60;;;0.60;99.90;;;;;;4978037;28;20757;-47
2023/01/21 09:31:00;;;;;;;31.20;27.73;;;0.60;99.90;;;;;;4970277;28;20193;-49
2023/01/21 09:33:28;;;;;;;29.77;25.95;;;0.60;99.90;;;;;;4968825;28;20185;-47
2023/01/21 09:35:59;;;;;;;31.02;27.92;;;0.70;99.90;;;;;;4979846;28;20280;-47
2023/01/21 09:38:26;;;;;;;32.30;28.90;;;0.80;99.90;;;;;;4980103;28;20194;-44
2023/01/21 09:40:53;;;;;;;26.60;23.73;;;0.80;99.90;;;;;;4980381;28;20232;-44
2023/01/21 09:43:38;;;;;;;30.08;25.85;;;0.80;99.90;;;;;;4980314;28;20192;-44
2023/01/21 09:46:09;;;;;;;26.70;23.90;;;0.90;99.90;;;;;;4956073;28;20202;-47
2023/01/21 09:48:40;;;;;;;29.27;24.95;;;0.90;99.90;;;;;;4966020;28;20194;-46
2023/01/21 09:51:18;;;;;;;26.85;23.95;;;0.80;99.90;;;;;;4963448;28;20339;-45
2023/01/21 09:53:50;;;;;;;32.75;26.55;;;0.80;99.90;;;;;;4969594;28;20184;-44
2023/01/21 09:56:26;;;;;;;27.92;24.85;;;0.80;99.90;;;;;;4973307;28;20182;-43
2023/01/21 09:59:24;;;;;;;26.42;22.88;;;0.90;99.90;;;;;;4977638;28;20243;-45
2023/01/21 10:01:51;;;;;;;29.00;24.55;;;0.90;99.90;;;;;;4949273;28;20286;-47
2023/01/21 10:04:20;;;;;;;28.17;24.10;;;0.90;99.90;;;;;;4977840;28;20216;-44
2023/01/21 10:07:00;;;;;;;25.15;22.60;;;0.90;99.90;;;;;;4979306;28;20208;-46
2023/01/21 10:10:07;;;;;;;25.80;23.10;;;0.90;99.90;;;;;;4974743;28;20684;-46
2023/01/21 10:12:51;;;;;;;26.50;23.50;;;1.00;99.90;;;;;;4920168;29;20226;-45
2023/01/21 10:15:38;;;;;;;25.75;23.05;;;1.10;99.90;;;;;;4918508;29;20938;-44
2023/01/21 10:18:13;;;;;;;25.35;22.75;;;1.10;99.90;;;;;;4951894;28;20279;-46
2023/01/21 10:20:44;;;;;;;26.45;23.60;;;1.10;99.90;;;;;;4969540;28;20186;-43
2023/01/21 10:23:41;;;;;;;25.60;22.80;;;1.10;99.90;;;;;;4962381;28;20188;-43
2023/01/21 10:26:10;;;;;;;26.05;21.88;;;1.10;99.90;;;;;;4965273;28;20183;-47
2023/01/21 10:28:40;;;;;;;26.27;23.52;;;1.10;99.90;;;;;;4951299;28;20201;-47
2023/01/21 10:31:22;;;;;;;25.80;22.27;;;1.10;99.90;;;;;;4972025;28;20194;-46
2023/01/21 10:33:48;;;;;;;25.40;22.65;;;1.20;99.90;;;;;;4965738;28;20185;-44
2023/01/21 10:36:21;;;;;;;24.75;22.00;;;1.20;99.90;;;;;;4970943;28;20190;-45
2023/01/21 10:39:12;;;;;;;25.15;22.23;;;1.30;99.90;;;;;;4970162;28;20648;-47
2023/01/21 10:41:52;;;;;;;25.42;22.73;;;1.30;99.90;;;;;;4969200;28;20326;-47
2023/01/21 10:45:13;;;;;;;25.45;22.65;;;1.30;99.90;;;;;;4968043;28;20193;-47
2023/01/21 10:47:47;;;;;;;26.83;22.55;;;1.30;99.90;;;;;;4960825;28;20661;-47
2023/01/21 10:50:27;;;;;;;27.48;24.42;;;1.40;99.90;;;;;;4972189;28;20847;-44
2023/01/21 10:53:11;;;;;;;26.70;23.90;;;1.40;99.90;;;;;;4970660;28;20206;-47
2023/01/21 10:56:03;;;;;;;26.65;23.60;;;1.30;99.90;;;;;;4977623;28;20593;-44
2023/01/21 10:58:37;;;;;;;26.50;23.63;;;1.30;99.90;;;;;;4975024;28;20188;-47
2023/01/21 11:01:17;;;;;;;25.23;22.73;;;1.30;99.90;;;;;;4974936;28;20240;-46
2023/01/21 11:03:46;;;;;;;27.10;24.33;;;1.30;99.90;;;;;;4975363;28;20193;-48
2023/01/21 11:06:15;;;;;;;26.13;23.60;;;1.40;99.90;;;;;;4974171;28;20189;-45
2023/01/21 11:08:44;;;;;;;26.25;21.85;;;1.40;99.90;;;;;;4966717;28;20182;-45
2023/01/21 11:11:11;;;;;;;28.48;25.65;;;1.50;99.90;;;;;;4945723;28;20196;-45
2023/01/21 11:13:37;;;;;;;30.05;26.85;;;1.40;99.90;;;;;;4963335;28;20197;-48
2023/01/21 11:16:03;;;;;;;32.57;29.40;;;1.40;99.90;;;;;;4970405;28;20928;-43
2023/01/21 11:18:36;;;;;;;28.10;25.20;;;1.40;99.90;;;;;;4970126;28;20217;-46
2023/01/21 11:21:13;;;;;;;27.42;24.63;;;1.40;99.90;;;;;;4960664;28;20196;-47
2023/01/21 11:23:39;;;;;;;26.30;22.75;;;1.40;99.90;;;;;;4963925;28;20257;-45
2023/01/21 11:26:15;;;;;;;26.40;23.73;;;1.40;99.90;;;;;;4958915;28;20186;-46
2023/01/21 11:28:40;;;;;;;23.15;20.95;;;1.50;99.90;;;;;;4975536;28;20769;-44
2023/01/21 11:31:13;;;;;;;24.80;22.20;;;1.50;99.90;;;;;;4964149;28;20205;-48
2023/01/21 11:33:40;;;;;;;23.73;21.25;;;1.60;99.90;;;;;;4953423;28;20304;-45
2023/01/21 11:36:15;;;;;;;24.80;22.10;;;1.70;99.90;;;;;;4979730;28;20178;-46
2023/01/21 11:38:42;;;;;;;26.23;22.80;;;1.70;99.90;;;;;;4975784;28;20182;-44
2023/01/21 11:41:20;;;;;;;25.45;22.95;;;1.90;99.90;;;;;;4976864;28;20231;-44
2023/01/21 11:43:53;;;;;;;24.02;21.65;;;1.90;99.90;;;;;;4975763;28;20187;-44
2023/01/21 11:46:28;;;;;;;25.17;22.45;;;1.90;99.90;;;;;;4976567;28;20334;-43
2023/01/21 11:49:16;;;;;;;24.08;21.58;;;1.90;99.90;;;;;;4961963;28;20183;-47
2023/01/21 11:51:44;;;;;;;24.25;21.67;;;1.80;99.90;;;;;;4948261;28;20720;-46
2023/01/21 11:54:22;;;;;;;24.05;21.48;;;1.80;99.90;;;;;;4975717;28;20217;-45
2023/01/21 11:56:59;;;;;;;24.45;21.83;;;1.70;99.90;;;;;;4961228;28;20198;-43
2023/01/21 11:59:44;;;;;;;24.23;21.70;;;1.80;99.90;;;;;;4962375;28;20190;-44
2023/01/21 12:02:23;;;;;;;24.10;21.60;;;1.90;99.90;;;;;;4965140;28;20190;-45
2023/01/21 12:05:14;;;;;;;25.02;22.42;;;1.80;99.90;;;;;;4966948;28;20273;-46
2023/01/21 12:07:41;;;;;;;25.70;23.23;;;1.80;99.90;;;;;;4974920;28;20191;-45
2023/01/21 12:10:13;;;;;;;23.48;21.05;;;1.80;99.90;;;;;;4972244;28;20193;-44
2023/01/21 12:13:05;;;;;;;24.52;22.10;;;1.80;99.90;;;;;;4975663;28;20209;-49
2023/01/21 12:15:56;;;;;;;24.52;22.02;;;1.70;99.90;;;;;;4977982;28;21110;-45
2023/01/21 12:18:52;;;;;;;25.15;22.42;;;1.60;99.90;;;;;;4977243;28;20905;-48
2023/01/21 12:21:45;;;;;;;23.77;21.35;;;1.60;99.90;;;;;;4967098;28;20198;-45
2023/01/21 12:24:38;;;;;;;25.45;22.77;;;1.60;99.90;;;;;;4965015;28;20240;-46
2023/01/21 12:27:15;;;;;;;25.63;22.92;;;1.60;99.90;;;;;;4966542;28;20191;-43
2023/01/21 12:30:06;;;;;;;24.95;22.42;;;1.70;99.90;;;;;;4972644;28;20254;-43
2023/01/21 12:32:41;;;;;;;26.42;22.15;;;1.60;99.90;;;;;;4974307;28;20234;-43
2023/01/21 12:35:20;;;;;;;24.63;21.77;;;1.60;99.90;;;;;;4978978;28;20182;-44
2023/01/21 12:37:57;;;;;;;24.85;22.25;;;1.70;99.90;;;;;;4981946;28;20184;-48
2023/01/21 12:40:38;;;;;;;24.67;22.10;;;1.70;99.90;;;;;;4969183;28;20184;-44
2023/01/21 12:43:15;;;;;;;25.67;22.95;;;1.70;99.90;;;;;;4968248;28;20211;-45
2023/01/21 12:46:09;;;;;;;24.65;22.15;;;1.70;99.90;;;;;;4977270;28;20545;-46
2023/01/21 12:48:41;;;;;;;24.90;22.55;;;1.80;99.90;;;;;;4976465;28;20183;-49
2023/01/21 12:51:12;;;;;;;25.50;23.10;;;1.80;99.90;;;;;;4977643;28;20207;-47
2023/01/21 12:53:55;;;;;;;22.77;20.70;;;1.80;99.90;;;;;;4972318;28;20654;-47
2023/01/21 12:56:42;;;;;;;24.70;22.30;;;1.80;99.90;;;;;;4966714;28;20186;-46
2023/01/21 12:59:39;;;;;;;23.63;21.25;;;1.80;99.90;;;;;;4978403;28;20247;-44